Terminal Aerodrome Forecast
Issued by NWS

Home | Current Version | Previous Version | Text Only | Print | Product List | Glossary On
Versions: 1 2 3 4 5 6 7 8 9 10 11 12 13 14 15 16 17 18 19 20 21 22 23 24 25 26
000
FTUS45 KLKN 222320
TAFWMC
TAF
KWMC 222320Z 2300/2324 VRB06KT P6SM VCTS SCT045 BKN070CB
      TEMPO 2300/2302 VRB15G30KT 3SM -TSRA BKN060CB BKN090
     FM230200 29007KT P6SM VCSH OVC070
      TEMPO 2302/2306 -SHRA BKN050
     FM232000 31008KT P6SM VCTS BKN070CB=

USA.gov is the U.S. government's official web portal to all federal, state and local government web resources and services.